sensor_id;sensor_type;location;lat;lon;timestamp;P1;durP1;ratioP1;P2;durP2;ratioP2
78875;SDS011;68253;52.506;5.486;2023-10-09T00:00:32;17.35;;;7.68;;
78875;SDS011;68253;52.506;5.486;2023-10-09T00:02:59;23.25;;;11.20;;
78875;SDS011;68253;52.506;5.486;2023-10-09T00:05:29;22.45;;;10.57;;
78875;SDS011;68253;52.506;5.486;2023-10-09T00:08:14;18.10;;;8.10;;
78875;SDS011;68253;52.506;5.486;2023-10-09T00:10:48;21.90;;;9.57;;
78875;SDS011;68253;52.506;5.486;2023-10-09T00:13:19;24.23;;;11.00;;
78875;SDS011;68253;52.506;5.486;2023-10-09T00:15:48;24.13;;;11.68;;
78875;SDS011;68253;52.506;5.486;2023-10-09T00:18:18;23.95;;;11.20;;
78875;SDS011;68253;52.506;5.486;2023-10-09T00:20:54;24.65;;;11.80;;
78875;SDS011;68253;52.506;5.486;2023-10-09T00:23:21;21.60;;;10.25;;
78875;SDS011;68253;52.506;5.486;2023-10-09T00:25:51;26.33;;;12.13;;
78875;SDS011;68253;52.506;5.486;2023-10-09T00:28:47;22.92;;;10.32;;
78875;SDS011;68253;52.506;5.486;2023-10-09T00:31:13;26.80;;;13.02;;
78875;SDS011;68253;52.506;5.486;2023-10-09T00:33:51;21.60;;;10.20;;
78875;SDS011;68253;52.506;5.486;2023-10-09T00:36:18;22.55;;;10.43;;
78875;SDS011;68253;52.506;5.486;2023-10-09T00:38:53;30.00;;;14.85;;
78875;SDS011;68253;52.506;5.486;2023-10-09T00:41:20;23.52;;;11.98;;
78875;SDS011;68253;52.506;5.486;2023-10-09T00:43:51;26.02;;;13.57;;
78875;SDS011;68253;52.506;5.486;2023-10-09T00:46:19;24.25;;;12.27;;
78875;SDS011;68253;52.506;5.486;2023-10-09T00:48:47;23.75;;;10.73;;
78875;SDS011;68253;52.506;5.486;2023-10-09T00:51:15;26.85;;;12.45;;
78875;SDS011;68253;52.506;5.486;2023-10-09T00:53:53;23.90;;;12.05;;
78875;SDS011;68253;52.506;5.486;2023-10-09T00:58:53;27.55;;;12.38;;
78875;SDS011;68253;52.506;5.486;2023-10-09T01:01:32;22.70;;;10.32;;
78875;SDS011;68253;52.506;5.486;2023-10-09T01:04:02;26.70;;;11.95;;
78875;SDS011;68253;52.506;5.486;2023-10-09T01:06:43;24.40;;;11.68;;
78875;SDS011;68253;52.506;5.486;2023-10-09T01:09:13;23.60;;;10.35;;
78875;SDS011;68253;52.506;5.486;2023-10-09T01:11:40;25.90;;;12.15;;
78875;SDS011;68253;52.506;5.486;2023-10-09T01:14:34;21.65;;;10.82;;
78875;SDS011;68253;52.506;5.486;2023-10-09T01:17:04;22.45;;;11.73;;
78875;SDS011;68253;52.506;5.486;2023-10-09T01:19:34;26.55;;;12.02;;
78875;SDS011;68253;52.506;5.486;2023-10-09T01:22:01;23.58;;;11.38;;
78875;SDS011;68253;52.506;5.486;2023-10-09T01:24:38;22.00;;;10.13;;
78875;SDS011;68253;52.506;5.486;2023-10-09T01:27:08;20.75;;;10.25;;
78875;SDS011;68253;52.506;5.486;2023-10-09T01:29:41;23.20;;;10.20;;
78875;SDS011;68253;52.506;5.486;2023-10-09T01:32:08;22.73;;;10.65;;
78875;SDS011;68253;52.506;5.486;2023-10-09T01:34:42;22.65;;;11.70;;
78875;SDS011;68253;52.506;5.486;2023-10-09T01:37:11;19.88;;;9.60;;
78875;SDS011;68253;52.506;5.486;2023-10-09T01:39:45;19.48;;;9.95;;
78875;SDS011;68253;52.506;5.486;2023-10-09T01:42:20;20.63;;;9.32;;
78875;SDS011;68253;52.506;5.486;2023-10-09T01:45:10;21.58;;;9.52;;
78875;SDS011;68253;52.506;5.486;2023-10-09T01:47:38;18.60;;;8.93;;
78875;SDS011;68253;52.506;5.486;2023-10-09T01:50:05;18.60;;;9.63;;
78875;SDS011;68253;52.506;5.486;2023-10-09T01:52:53;21.05;;;10.18;;
78875;SDS011;68253;52.506;5.486;2023-10-09T01:55:19;23.83;;;11.35;;
78875;SDS011;68253;52.506;5.486;2023-10-09T01:58:06;20.77;;;8.93;;
78875;SDS011;68253;52.506;5.486;2023-10-09T02:00:50;20.95;;;9.65;;
78875;SDS011;68253;52.506;5.486;2023-10-09T02:03:27;20.20;;;10.07;;
78875;SDS011;68253;52.506;5.486;2023-10-09T02:05:54;21.00;;;10.45;;
78875;SDS011;68253;52.506;5.486;2023-10-09T02:08:28;17.80;;;8.05;;
78875;SDS011;68253;52.506;5.486;2023-10-09T02:11:01;18.55;;;8.85;;
78875;SDS011;68253;52.506;5.486;2023-10-09T02:13:28;19.45;;;9.23;;
78875;SDS011;68253;52.506;5.486;2023-10-09T02:15:55;18.27;;;9.00;;
78875;SDS011;68253;52.506;5.486;2023-10-09T02:18:39;18.98;;;8.48;;
78875;SDS011;68253;52.506;5.486;2023-10-09T02:21:06;17.33;;;6.63;;
78875;SDS011;68253;52.506;5.486;2023-10-09T02:23:33;17.65;;;8.55;;
78875;SDS011;68253;52.506;5.486;2023-10-09T02:26:10;17.10;;;7.38;;
78875;SDS011;68253;52.506;5.486;2023-10-09T02:28:49;17.05;;;6.57;;
78875;SDS011;68253;52.506;5.486;2023-10-09T02:31:24;19.20;;;8.73;;
78875;SDS011;68253;52.506;5.486;2023-10-09T02:33:53;19.48;;;7.93;;
78875;SDS011;68253;52.506;5.486;2023-10-09T02:36:21;14.90;;;7.50;;
78875;SDS011;68253;52.506;5.486;2023-10-09T02:38:47;14.02;;;5.13;;
78875;SDS011;68253;52.506;5.486;2023-10-09T02:41:17;16.48;;;7.70;;
78875;SDS011;68253;52.506;5.486;2023-10-09T02:43:46;16.13;;;7.22;;
78875;SDS011;68253;52.506;5.486;2023-10-09T02:46:13;15.07;;;6.68;;
78875;SDS011;68253;52.506;5.486;2023-10-09T02:48:44;17.08;;;6.82;;
78875;SDS011;68253;52.506;5.486;2023-10-09T02:51:17;15.90;;;6.95;;
78875;SDS011;68253;52.506;5.486;2023-10-09T02:56:23;14.77;;;6.53;;
78875;SDS011;68253;52.506;5.486;2023-10-09T02:58:50;15.63;;;6.15;;
78875;SDS011;68253;52.506;5.486;2023-10-09T03:01:17;17.30;;;7.43;;
78875;SDS011;68253;52.506;5.486;2023-10-09T03:03:43;17.38;;;6.68;;
78875;SDS011;68253;52.506;5.486;2023-10-09T03:06:14;13.88;;;6.20;;
78875;SDS011;68253;52.506;5.486;2023-10-09T03:08:50;16.40;;;6.95;;
78875;SDS011;68253;52.506;5.486;2023-10-09T03:11:16;17.23;;;6.20;;
78875;SDS011;68253;52.506;5.486;2023-10-09T03:13:44;16.42;;;6.30;;
78875;SDS011;68253;52.506;5.486;2023-10-09T03:16:11;14.70;;;6.75;;
78875;SDS011;68253;52.506;5.486;2023-10-09T03:18:46;16.25;;;6.18;;
78875;SDS011;68253;52.506;5.486;2023-10-09T03:21:13;15.95;;;6.13;;
78875;SDS011;68253;52.506;5.486;2023-10-09T03:23:45;14.82;;;6.00;;
78875;SDS011;68253;52.506;5.486;2023-10-09T03:26:15;12.02;;;5.15;;
78875;SDS011;68253;52.506;5.486;2023-10-09T03:28:44;14.48;;;6.07;;
78875;SDS011;68253;52.506;5.486;2023-10-09T03:31:11;12.05;;;5.00;;
78875;SDS011;68253;52.506;5.486;2023-10-09T03:33:37;16.63;;;5.70;;
78875;SDS011;68253;52.506;5.486;2023-10-09T03:36:04;15.57;;;5.55;;
78875;SDS011;68253;52.506;5.486;2023-10-09T03:38:38;14.85;;;5.68;;
78875;SDS011;68253;52.506;5.486;2023-10-09T03:41:04;13.65;;;6.05;;
78875;SDS011;68253;52.506;5.486;2023-10-09T03:43:34;15.35;;;6.10;;
78875;SDS011;68253;52.506;5.486;2023-10-09T03:46:08;14.52;;;5.75;;
78875;SDS011;68253;52.506;5.486;2023-10-09T03:48:54;13.88;;;5.43;;
78875;SDS011;68253;52.506;5.486;2023-10-09T03:51:22;14.25;;;5.85;;
78875;SDS011;68253;52.506;5.486;2023-10-09T03:53:49;15.00;;;6.07;;
78875;SDS011;68253;52.506;5.486;2023-10-09T03:56:18;14.43;;;6.13;;
78875;SDS011;68253;52.506;5.486;2023-10-09T03:58:49;13.80;;;5.07;;
78875;SDS011;68253;52.506;5.486;2023-10-09T04:01:20;13.68;;;4.75;;
78875;SDS011;68253;52.506;5.486;2023-10-09T04:04:03;15.75;;;5.35;;
78875;SDS011;68253;52.506;5.486;2023-10-09T04:09:03;13.73;;;5.03;;
78875;SDS011;68253;52.506;5.486;2023-10-09T04:11:45;13.13;;;5.35;;
78875;SDS011;68253;52.506;5.486;2023-10-09T04:14:12;12.65;;;5.00;;
78875;SDS011;68253;52.506;5.486;2023-10-09T04:17:11;12.98;;;4.30;;
78875;SDS011;68253;52.506;5.486;2023-10-09T04:19:56;12.63;;;4.75;;
78875;SDS011;68253;52.506;5.486;2023-10-09T04:22:41;13.85;;;4.75;;
78875;SDS011;68253;52.506;5.486;2023-10-09T04:25:19;12.25;;;3.90;;
78875;SDS011;68253;52.506;5.486;2023-10-09T04:27:54;11.30;;;3.88;;
78875;SDS011;68253;52.506;5.486;2023-10-09T04:30:40;13.27;;;3.10;;
78875;SDS011;68253;52.506;5.486;2023-10-09T04:33:12;13.23;;;4.65;;
78875;SDS011;68253;52.506;5.486;2023-10-09T04:35:55;12.25;;;4.05;;
78875;SDS011;68253;52.506;5.486;2023-10-09T04:38:55;15.38;;;4.95;;
78875;SDS011;68253;52.506;5.486;2023-10-09T04:41:27;10.40;;;3.72;;
78875;SDS011;68253;52.506;5.486;2023-10-09T04:43:58;14.15;;;4.45;;
78875;SDS011;68253;52.506;5.486;2023-10-09T04:46:45;12.43;;;3.80;;
78875;SDS011;68253;52.506;5.486;2023-10-09T04:49:34;12.73;;;3.97;;
78875;SDS011;68253;52.506;5.486;2023-10-09T04:52:14;11.77;;;3.67;;
78875;SDS011;68253;52.506;5.486;2023-10-09T04:54:56;13.88;;;4.20;;
78875;SDS011;68253;52.506;5.486;2023-10-09T04:57:43;11.73;;;3.72;;
78875;SDS011;68253;52.506;5.486;2023-10-09T05:02:52;9.75;;;3.38;;
78875;SDS011;68253;52.506;5.486;2023-10-09T05:05:37;11.30;;;3.33;;
78875;SDS011;68253;52.506;5.486;2023-10-09T05:08:07;10.73;;;3.80;;
78875;SDS011;68253;52.506;5.486;2023-10-09T05:10:50;10.50;;;3.50;;
78875;SDS011;68253;52.506;5.486;2023-10-09T05:13:26;11.80;;;3.60;;
78875;SDS011;68253;52.506;5.486;2023-10-09T05:16:16;13.10;;;3.95;;
78875;SDS011;68253;52.506;5.486;2023-10-09T05:18:48;11.10;;;4.13;;
78875;SDS011;68253;52.506;5.486;2023-10-09T05:21:34;9.15;;;2.85;;
78875;SDS011;68253;52.506;5.486;2023-10-09T05:24:03;11.70;;;3.80;;
78875;SDS011;68253;52.506;5.486;2023-10-09T05:26:48;12.05;;;4.00;;
78875;SDS011;68253;52.506;5.486;2023-10-09T05:29:16;12.95;;;4.35;;
78875;SDS011;68253;52.506;5.486;2023-10-09T05:31:59;10.38;;;3.78;;
78875;SDS011;68253;52.506;5.486;2023-10-09T05:34:41;12.50;;;4.13;;
78875;SDS011;68253;52.506;5.486;2023-10-09T05:37:27;12.77;;;3.83;;
78875;SDS011;68253;52.506;5.486;2023-10-09T05:42:28;10.45;;;3.83;;
78875;SDS011;68253;52.506;5.486;2023-10-09T05:45:13;11.85;;;4.22;;
78875;SDS011;68253;52.506;5.486;2023-10-09T05:50:22;11.30;;;3.80;;
78875;SDS011;68253;52.506;5.486;2023-10-09T05:52:52;11.82;;;3.80;;
78875;SDS011;68253;52.506;5.486;2023-10-09T05:55:20;10.63;;;3.20;;
78875;SDS011;68253;52.506;5.486;2023-10-09T05:57:50;12.23;;;3.38;;
78875;SDS011;68253;52.506;5.486;2023-10-09T06:00:34;10.40;;;3.33;;
78875;SDS011;68253;52.506;5.486;2023-10-09T06:03:19;12.07;;;3.63;;
78875;SDS011;68253;52.506;5.486;2023-10-09T06:05:49;14.73;;;4.07;;
78875;SDS011;68253;52.506;5.486;2023-10-09T06:08:23;13.05;;;4.47;;
78875;SDS011;68253;52.506;5.486;2023-10-09T06:11:10;12.10;;;3.58;;
78875;SDS011;68253;52.506;5.486;2023-10-09T06:13:56;14.32;;;4.10;;
78875;SDS011;68253;52.506;5.486;2023-10-09T06:16:44;11.77;;;4.07;;
78875;SDS011;68253;52.506;5.486;2023-10-09T06:19:25;13.13;;;4.00;;
78875;SDS011;68253;52.506;5.486;2023-10-09T06:21:53;10.30;;;3.42;;
78875;SDS011;68253;52.506;5.486;2023-10-09T06:24:29;11.23;;;3.03;;
78875;SDS011;68253;52.506;5.486;2023-10-09T06:27:07;11.93;;;3.53;;
78875;SDS011;68253;52.506;5.486;2023-10-09T06:29:37;11.75;;;3.30;;
78875;SDS011;68253;52.506;5.486;2023-10-09T06:32:11;10.95;;;3.75;;
78875;SDS011;68253;52.506;5.486;2023-10-09T06:34:44;14.63;;;4.15;;
78875;SDS011;68253;52.506;5.486;2023-10-09T06:37:45;10.40;;;3.72;;
78875;SDS011;68253;52.506;5.486;2023-10-09T06:40:38;9.60;;;2.92;;
78875;SDS011;68253;52.506;5.486;2023-10-09T06:43:17;10.45;;;2.65;;
78875;SDS011;68253;52.506;5.486;2023-10-09T06:45:53;12.43;;;3.00;;
78875;SDS011;68253;52.506;5.486;2023-10-09T06:48:26;10.32;;;3.00;;
78875;SDS011;68253;52.506;5.486;2023-10-09T06:51:02;11.13;;;3.63;;
78875;SDS011;68253;52.506;5.486;2023-10-09T06:53:28;13.45;;;4.00;;
78875;SDS011;68253;52.506;5.486;2023-10-09T06:56:15;13.80;;;3.80;;
78875;SDS011;68253;52.506;5.486;2023-10-09T06:58:53;15.27;;;5.20;;
78875;SDS011;68253;52.506;5.486;2023-10-09T07:01:21;13.68;;;3.55;;
78875;SDS011;68253;52.506;5.486;2023-10-09T07:04:11;13.23;;;4.28;;
78875;SDS011;68253;52.506;5.486;2023-10-09T07:06:47;11.13;;;3.65;;
78875;SDS011;68253;52.506;5.486;2023-10-09T07:09:14;10.75;;;3.03;;
78875;SDS011;68253;52.506;5.486;2023-10-09T07:11:42;13.27;;;3.85;;
78875;SDS011;68253;52.506;5.486;2023-10-09T07:14:14;11.82;;;3.85;;
78875;SDS011;68253;52.506;5.486;2023-10-09T07:19:24;10.65;;;3.03;;
78875;SDS011;68253;52.506;5.486;2023-10-09T07:22:09;10.32;;;3.28;;
78875;SDS011;68253;52.506;5.486;2023-10-09T07:25:01;11.85;;;3.72;;
78875;SDS011;68253;52.506;5.486;2023-10-09T07:27:58;10.85;;;3.08;;
78875;SDS011;68253;52.506;5.486;2023-10-09T07:30:28;11.57;;;3.20;;
78875;SDS011;68253;52.506;5.486;2023-10-09T07:33:04;12.80;;;3.83;;
78875;SDS011;68253;52.506;5.486;2023-10-09T07:35:38;13.35;;;4.07;;
78875;SDS011;68253;52.506;5.486;2023-10-09T07:38:15;10.52;;;3.47;;
78875;SDS011;68253;52.506;5.486;2023-10-09T07:40:45;11.82;;;3.30;;
78875;SDS011;68253;52.506;5.486;2023-10-09T07:43:33;9.45;;;2.63;;
78875;SDS011;68253;52.506;5.486;2023-10-09T07:46:07;12.07;;;3.20;;
78875;SDS011;68253;52.506;5.486;2023-10-09T07:48:57;10.23;;;2.95;;
78875;SDS011;68253;52.506;5.486;2023-10-09T07:51:26;11.02;;;3.30;;
78875;SDS011;68253;52.506;5.486;2023-10-09T07:53:58;14.23;;;4.32;;
78875;SDS011;68253;52.506;5.486;2023-10-09T07:56:35;16.23;;;4.10;;
78875;SDS011;68253;52.506;5.486;2023-10-09T07:59:09;10.57;;;2.95;;
78875;SDS011;68253;52.506;5.486;2023-10-09T08:01:42;14.40;;;3.53;;
78875;SDS011;68253;52.506;5.486;2023-10-09T08:04:25;11.18;;;3.20;;
78875;SDS011;68253;52.506;5.486;2023-10-09T08:07:04;13.32;;;3.60;;
78875;SDS011;68253;52.506;5.486;2023-10-09T08:09:33;11.38;;;3.53;;
78875;SDS011;68253;52.506;5.486;2023-10-09T08:12:15;11.07;;;3.58;;
78875;SDS011;68253;52.506;5.486;2023-10-09T08:15:00;13.30;;;3.60;;
78875;SDS011;68253;52.506;5.486;2023-10-09T08:17:52;12.32;;;4.03;;
78875;SDS011;68253;52.506;5.486;2023-10-09T08:20:29;17.30;;;5.20;;
78875;SDS011;68253;52.506;5.486;2023-10-09T08:23:15;14.20;;;4.43;;
78875;SDS011;68253;52.506;5.486;2023-10-09T08:26:02;14.02;;;4.63;;
78875;SDS011;68253;52.506;5.486;2023-10-09T08:28:41;13.20;;;4.22;;
78875;SDS011;68253;52.506;5.486;2023-10-09T08:31:15;12.85;;;5.10;;
78875;SDS011;68253;52.506;5.486;2023-10-09T08:34:02;12.45;;;4.50;;
78875;SDS011;68253;52.506;5.486;2023-10-09T08:36:29;12.20;;;3.30;;
78875;SDS011;68253;52.506;5.486;2023-10-09T08:39:04;11.43;;;3.60;;
78875;SDS011;68253;52.506;5.486;2023-10-09T08:41:43;11.70;;;3.65;;
78875;SDS011;68253;52.506;5.486;2023-10-09T08:44:10;14.15;;;4.50;;
78875;SDS011;68253;52.506;5.486;2023-10-09T08:46:38;16.40;;;4.18;;
78875;SDS011;68253;52.506;5.486;2023-10-09T08:49:05;15.60;;;4.47;;
78875;SDS011;68253;52.506;5.486;2023-10-09T08:51:33;13.35;;;4.65;;
78875;SDS011;68253;52.506;5.486;2023-10-09T08:54:00;11.18;;;3.50;;
78875;SDS011;68253;52.506;5.486;2023-10-09T08:56:27;14.77;;;4.82;;
78875;SDS011;68253;52.506;5.486;2023-10-09T08:58:56;15.73;;;4.72;;
78875;SDS011;68253;52.506;5.486;2023-10-09T09:01:24;13.70;;;4.15;;
78875;SDS011;68253;52.506;5.486;2023-10-09T09:03:51;17.02;;;4.65;;
78875;SDS011;68253;52.506;5.486;2023-10-09T09:06:21;10.82;;;3.60;;
78875;SDS011;68253;52.506;5.486;2023-10-09T09:08:49;14.48;;;3.83;;
78875;SDS011;68253;52.506;5.486;2023-10-09T09:11:20;15.32;;;3.50;;
78875;SDS011;68253;52.506;5.486;2023-10-09T09:18:56;13.38;;;3.50;;
78875;SDS011;68253;52.506;5.486;2023-10-09T09:21:39;12.18;;;3.10;;
78875;SDS011;68253;52.506;5.486;2023-10-09T09:24:10;12.07;;;3.45;;
78875;SDS011;68253;52.506;5.486;2023-10-09T09:26:40;13.43;;;4.38;;
78875;SDS011;68253;52.506;5.486;2023-10-09T09:29:46;12.45;;;4.20;;
78875;SDS011;68253;52.506;5.486;2023-10-09T09:32:27;13.80;;;4.38;;
78875;SDS011;68253;52.506;5.486;2023-10-09T09:35:04;13.60;;;4.03;;
78875;SDS011;68253;52.506;5.486;2023-10-09T09:37:44;11.73;;;4.00;;
78875;SDS011;68253;52.506;5.486;2023-10-09T09:40:18;13.98;;;3.60;;
78875;SDS011;68253;52.506;5.486;2023-10-09T09:43:00;12.50;;;3.80;;
78875;SDS011;68253;52.506;5.486;2023-10-09T09:45:32;13.77;;;4.15;;
78875;SDS011;68253;52.506;5.486;2023-10-09T09:48:00;19.00;;;5.82;;
78875;SDS011;68253;52.506;5.486;2023-10-09T09:50:34;16.23;;;4.93;;
78875;SDS011;68253;52.506;5.486;2023-10-09T09:53:12;14.30;;;4.15;;
78875;SDS011;68253;52.506;5.486;2023-10-09T09:55:50;12.38;;;3.85;;
78875;SDS011;68253;52.506;5.486;2023-10-09T09:58:21;14.52;;;4.05;;
78875;SDS011;68253;52.506;5.486;2023-10-09T10:00:50;19.13;;;4.50;;
78875;SDS011;68253;52.506;5.486;2023-10-09T10:03:23;11.60;;;3.85;;
78875;SDS011;68253;52.506;5.486;2023-10-09T10:05:55;16.48;;;4.25;;
78875;SDS011;68253;52.506;5.486;2023-10-09T10:08:22;12.63;;;3.67;;
78875;SDS011;68253;52.506;5.486;2023-10-09T10:10:58;11.80;;;3.55;;
78875;SDS011;68253;52.506;5.486;2023-10-09T10:18:55;11.35;;;3.30;;
78875;SDS011;68253;52.506;5.486;2023-10-09T10:21:35;15.27;;;3.90;;
78875;SDS011;68253;52.506;5.486;2023-10-09T10:35:20;13.73;;;4.53;;
78875;SDS011;68253;52.506;5.486;2023-10-09T10:41:12;12.48;;;3.58;;
78875;SDS011;68253;52.506;5.486;2023-10-09T10:43:44;17.33;;;4.65;;
78875;SDS011;68253;52.506;5.486;2023-10-09T10:46:14;12.60;;;4.18;;
78875;SDS011;68253;52.506;5.486;2023-10-09T10:48:41;11.70;;;3.15;;
78875;SDS011;68253;52.506;5.486;2023-10-09T10:51:15;13.13;;;3.83;;
78875;SDS011;68253;52.506;5.486;2023-10-09T10:53:53;11.00;;;3.35;;
78875;SDS011;68253;52.506;5.486;2023-10-09T10:56:24;11.73;;;3.35;;
78875;SDS011;68253;52.506;5.486;2023-10-09T10:59:01;12.85;;;3.97;;
78875;SDS011;68253;52.506;5.486;2023-10-09T11:01:31;12.77;;;3.55;;
78875;SDS011;68253;52.506;5.486;2023-10-09T11:04:20;10.40;;;3.35;;
78875;SDS011;68253;52.506;5.486;2023-10-09T11:07:04;13.50;;;3.92;;
78875;SDS011;68253;52.506;5.486;2023-10-09T11:09:50;16.83;;;4.22;;
78875;SDS011;68253;52.506;5.486;2023-10-09T11:12:29;9.95;;;3.15;;
78875;SDS011;68253;52.506;5.486;2023-10-09T11:15:08;16.23;;;4.70;;
78875;SDS011;68253;52.506;5.486;2023-10-09T11:17:59;10.82;;;2.85;;
78875;SDS011;68253;52.506;5.486;2023-10-09T11:20:31;13.55;;;3.38;;
78875;SDS011;68253;52.506;5.486;2023-10-09T11:23:02;12.05;;;3.40;;
78875;SDS011;68253;52.506;5.486;2023-10-09T11:25:51;13.15;;;3.50;;
78875;SDS011;68253;52.506;5.486;2023-10-09T11:28:18;8.52;;;2.38;;
78875;SDS011;68253;52.506;5.486;2023-10-09T11:31:10;14.30;;;4.20;;
78875;SDS011;68253;52.506;5.486;2023-10-09T11:36:09;10.15;;;3.00;;
78875;SDS011;68253;52.506;5.486;2023-10-09T11:38:37;8.50;;;2.58;;
78875;SDS011;68253;52.506;5.486;2023-10-09T11:41:16;13.95;;;3.50;;
78875;SDS011;68253;52.506;5.486;2023-10-09T11:43:52;11.50;;;4.05;;
78875;SDS011;68253;52.506;5.486;2023-10-09T11:46:24;13.38;;;4.00;;
78875;SDS011;68253;52.506;5.486;2023-10-09T11:49:06;9.73;;;2.75;;
78875;SDS011;68253;52.506;5.486;2023-10-09T11:52:08;13.02;;;3.85;;
78875;SDS011;68253;52.506;5.486;2023-10-09T11:54:34;11.25;;;3.58;;
78875;SDS011;68253;52.506;5.486;2023-10-09T11:57:01;11.45;;;3.25;;
78875;SDS011;68253;52.506;5.486;2023-10-09T11:59:28;11.80;;;3.03;;
78875;SDS011;68253;52.506;5.486;2023-10-09T12:02:07;9.98;;;2.70;;
78875;SDS011;68253;52.506;5.486;2023-10-09T12:04:39;10.75;;;3.13;;
78875;SDS011;68253;52.506;5.486;2023-10-09T12:07:09;9.85;;;3.28;;
78875;SDS011;68253;52.506;5.486;2023-10-09T12:09:38;14.15;;;4.20;;
78875;SDS011;68253;52.506;5.486;2023-10-09T12:12:05;13.50;;;3.83;;
78875;SDS011;68253;52.506;5.486;2023-10-09T12:14:33;10.77;;;3.10;;
78875;SDS011;68253;52.506;5.486;2023-10-09T12:17:01;14.02;;;3.72;;
78875;SDS011;68253;52.506;5.486;2023-10-09T12:19:37;11.30;;;3.38;;
78875;SDS011;68253;52.506;5.486;2023-10-09T12:22:07;11.13;;;2.92;;
78875;SDS011;68253;52.506;5.486;2023-10-09T12:24:41;10.98;;;3.28;;
78875;SDS011;68253;52.506;5.486;2023-10-09T12:27:11;10.93;;;2.90;;
78875;SDS011;68253;52.506;5.486;2023-10-09T12:29:37;11.40;;;3.33;;
78875;SDS011;68253;52.506;5.486;2023-10-09T12:32:09;10.07;;;3.10;;
78875;SDS011;68253;52.506;5.486;2023-10-09T12:34:37;8.63;;;2.67;;
78875;SDS011;68253;52.506;5.486;2023-10-09T12:37:04;13.70;;;3.30;;
78875;SDS011;68253;52.506;5.486;2023-10-09T12:39:31;10.18;;;2.60;;
78875;SDS011;68253;52.506;5.486;2023-10-09T12:42:05;10.43;;;3.20;;
78875;SDS011;68253;52.506;5.486;2023-10-09T12:44:32;9.95;;;2.67;;
78875;SDS011;68253;52.506;5.486;2023-10-09T12:47:08;10.40;;;3.05;;
78875;SDS011;68253;52.506;5.486;2023-10-09T12:49:36;11.45;;;2.83;;
78875;SDS011;68253;52.506;5.486;2023-10-09T12:52:09;11.82;;;2.95;;
78875;SDS011;68253;52.506;5.486;2023-10-09T12:54:42;8.43;;;2.33;;
78875;SDS011;68253;52.506;5.486;2023-10-09T12:57:09;8.20;;;2.40;;
78875;SDS011;68253;52.506;5.486;2023-10-09T12:59:39;13.88;;;4.22;;
78875;SDS011;68253;52.506;5.486;2023-10-09T13:02:14;13.27;;;3.00;;
78875;SDS011;68253;52.506;5.486;2023-10-09T13:04:57;11.38;;;3.45;;
78875;SDS011;68253;52.506;5.486;2023-10-09T13:07:25;12.75;;;3.63;;
78875;SDS011;68253;52.506;5.486;2023-10-09T13:09:51;13.40;;;3.92;;
78875;SDS011;68253;52.506;5.486;2023-10-09T13:12:37;10.73;;;2.85;;
78875;SDS011;68253;52.506;5.486;2023-10-09T13:15:08;11.55;;;3.58;;
78875;SDS011;68253;52.506;5.486;2023-10-09T13:17:35;11.02;;;2.88;;
78875;SDS011;68253;52.506;5.486;2023-10-09T13:20:02;11.32;;;3.60;;
78875;SDS011;68253;52.506;5.486;2023-10-09T13:22:38;12.30;;;3.22;;
78875;SDS011;68253;52.506;5.486;2023-10-09T13:25:09;11.70;;;3.10;;
78875;SDS011;68253;52.506;5.486;2023-10-09T13:27:42;11.25;;;3.13;;
78875;SDS011;68253;52.506;5.486;2023-10-09T13:30:19;8.60;;;2.42;;
78875;SDS011;68253;52.506;5.486;2023-10-09T13:32:49;13.85;;;3.92;;
78875;SDS011;68253;52.506;5.486;2023-10-09T13:35:18;11.25;;;3.40;;
78875;SDS011;68253;52.506;5.486;2023-10-09T13:37:45;11.60;;;3.40;;
78875;SDS011;68253;52.506;5.486;2023-10-09T13:40:21;14.35;;;3.97;;
78875;SDS011;68253;52.506;5.486;2023-10-09T13:42:54;12.63;;;3.53;;
78875;SDS011;68253;52.506;5.486;2023-10-09T13:45:25;10.50;;;3.05;;
78875;SDS011;68253;52.506;5.486;2023-10-09T13:47:53;12.38;;;4.03;;
78875;SDS011;68253;52.506;5.486;2023-10-09T13:50:26;10.52;;;3.22;;
78875;SDS011;68253;52.506;5.486;2023-10-09T13:52:58;12.13;;;3.03;;
78875;SDS011;68253;52.506;5.486;2023-10-09T13:55:25;11.98;;;3.05;;
78875;SDS011;68253;52.506;5.486;2023-10-09T13:58:00;14.07;;;3.70;;
78875;SDS011;68253;52.506;5.486;2023-10-09T14:00:26;9.35;;;2.80;;
78875;SDS011;68253;52.506;5.486;2023-10-09T14:03:02;13.15;;;4.57;;
78875;SDS011;68253;52.506;5.486;2023-10-09T14:05:37;11.27;;;2.97;;
78875;SDS011;68253;52.506;5.486;2023-10-09T14:08:10;13.23;;;3.63;;
78875;SDS011;68253;52.506;5.486;2023-10-09T14:10:41;15.52;;;3.88;;
78875;SDS011;68253;52.506;5.486;2023-10-09T14:13:07;14.85;;;3.80;;
78875;SDS011;68253;52.506;5.486;2023-10-09T14:15:38;12.55;;;4.05;;
78875;SDS011;68253;52.506;5.486;2023-10-09T14:18:08;12.07;;;2.80;;
78875;SDS011;68253;52.506;5.486;2023-10-09T14:20:37;14.55;;;4.00;;
78875;SDS011;68253;52.506;5.486;2023-10-09T14:23:06;15.75;;;3.88;;
78875;SDS011;68253;52.506;5.486;2023-10-09T14:25:34;11.38;;;2.92;;
78875;SDS011;68253;52.506;5.486;2023-10-09T14:28:04;12.27;;;3.08;;
78875;SDS011;68253;52.506;5.486;2023-10-09T14:30:44;11.07;;;2.97;;
78875;SDS011;68253;52.506;5.486;2023-10-09T14:33:14;11.80;;;3.80;;
78875;SDS011;68253;52.506;5.486;2023-10-09T14:35:48;14.20;;;4.20;;
78875;SDS011;68253;52.506;5.486;2023-10-09T14:38:14;11.60;;;3.30;;
78875;SDS011;68253;52.506;5.486;2023-10-09T14:40:44;15.15;;;4.63;;
78875;SDS011;68253;52.506;5.486;2023-10-09T14:43:11;10.50;;;3.38;;
78875;SDS011;68253;52.506;5.486;2023-10-09T14:45:47;12.23;;;3.47;;
78875;SDS011;68253;52.506;5.486;2023-10-09T14:48:14;10.85;;;2.80;;
78875;SDS011;68253;52.506;5.486;2023-10-09T14:50:50;12.50;;;3.35;;
78875;SDS011;68253;52.506;5.486;2023-10-09T14:53:20;12.80;;;3.47;;
78875;SDS011;68253;52.506;5.486;2023-10-09T14:55:53;12.13;;;3.92;;
78875;SDS011;68253;52.506;5.486;2023-10-09T14:58:20;9.50;;;2.95;;
78875;SDS011;68253;52.506;5.486;2023-10-09T15:00:48;12.43;;;3.53;;
78875;SDS011;68253;52.506;5.486;2023-10-09T15:03:14;13.48;;;3.53;;
78875;SDS011;68253;52.506;5.486;2023-10-09T15:05:41;13.98;;;3.92;;
78875;SDS011;68253;52.506;5.486;2023-10-09T15:08:08;10.25;;;3.50;;
78875;SDS011;68253;52.506;5.486;2023-10-09T15:10:52;9.07;;;2.88;;
78875;SDS011;68253;52.506;5.486;2023-10-09T15:13:21;10.70;;;3.10;;
78875;SDS011;68253;52.506;5.486;2023-10-09T15:15:54;10.38;;;2.80;;
78875;SDS011;68253;52.506;5.486;2023-10-09T15:18:21;9.93;;;3.08;;
78875;SDS011;68253;52.506;5.486;2023-10-09T15:20:48;12.32;;;3.00;;
78875;SDS011;68253;52.506;5.486;2023-10-09T15:23:15;10.88;;;3.10;;
78875;SDS011;68253;52.506;5.486;2023-10-09T15:25:41;11.95;;;3.22;;
78875;SDS011;68253;52.506;5.486;2023-10-09T15:28:11;10.98;;;2.88;;
78875;SDS011;68253;52.506;5.486;2023-10-09T15:30:38;10.98;;;3.03;;
78875;SDS011;68253;52.506;5.486;2023-10-09T15:33:04;9.00;;;2.38;;
78875;SDS011;68253;52.506;5.486;2023-10-09T15:35:31;10.38;;;2.53;;
78875;SDS011;68253;52.506;5.486;2023-10-09T15:38:03;10.75;;;2.83;;
78875;SDS011;68253;52.506;5.486;2023-10-09T15:40:30;11.50;;;2.83;;
78875;SDS011;68253;52.506;5.486;2023-10-09T15:43:00;13.85;;;3.20;;
78875;SDS011;68253;52.506;5.486;2023-10-09T15:45:26;12.77;;;3.30;;
78875;SDS011;68253;52.506;5.486;2023-10-09T15:47:57;8.90;;;2.63;;
78875;SDS011;68253;52.506;5.486;2023-10-09T15:50:25;12.82;;;3.42;;
78875;SDS011;68253;52.506;5.486;2023-10-09T15:52:51;11.13;;;3.67;;
78875;SDS011;68253;52.506;5.486;2023-10-09T15:55:22;14.07;;;3.40;;
78875;SDS011;68253;52.506;5.486;2023-10-09T15:57:51;11.23;;;3.05;;